createdAt,value
2019-02-09T00:00:51.494Z,34.60
2019-02-09T00:01:56.337Z,36.58
2019-02-09T00:03:01.372Z,32.93
2019-02-09T00:04:06.372Z,36.88
2019-02-09T00:05:11.689Z,35.20
2019-02-09T00:06:16.537Z,37.80
2019-02-09T00:07:21.382Z,40.90
2019-02-09T00:08:26.452Z,37.42
2019-02-09T00:09:31.621Z,37.20
2019-02-09T00:10:36.508Z,38.13
2019-02-09T00:11:41.331Z,36.73
2019-02-09T00:12:46.332Z,35.95
2019-02-09T00:13:51.683Z,37.35
2019-02-09T00:14:56.635Z,38.73
2019-02-09T00:16:01.380Z,38.53
2019-02-09T00:17:06.385Z,39.27
2019-02-09T00:18:11.356Z,37.80
2019-02-09T00:19:16.166Z,35.73
2019-02-09T00:20:21.344Z,33.48
2019-02-09T00:21:26.114Z,39.78
2019-02-09T00:22:30.929Z,35.98
2019-02-09T00:23:35.963Z,36.00
2019-02-09T00:24:40.753Z,34.43
2019-02-09T00:25:45.599Z,34.75
2019-02-09T00:26:50.471Z,41.10
2019-02-09T00:27:55.225Z,34.78
2019-02-09T00:29:00.069Z,35.45
2019-02-09T00:30:06.535Z,35.55
2019-02-09T00:31:11.328Z,36.93
2019-02-09T00:32:16.148Z,38.67
2019-02-09T00:33:20.921Z,37.23
2019-02-09T00:34:25.758Z,36.65
2019-02-09T00:35:30.994Z,36.20
2019-02-09T00:36:35.764Z,36.80
2019-02-09T00:37:40.538Z,39.65
2019-02-09T00:38:45.300Z,36.55
2019-02-09T00:39:50.064Z,33.38
2019-02-09T00:40:54.859Z,34.95
2019-02-09T00:41:59.696Z,35.43
2019-02-09T00:43:05.012Z,32.58
2019-02-09T00:44:09.905Z,32.25
2019-02-09T00:45:15.405Z,33.00
2019-02-09T00:46:20.233Z,35.03
2019-02-09T00:47:25.028Z,35.98
2019-02-09T00:48:29.886Z,33.95
2019-02-09T00:49:34.686Z,31.87
2019-02-09T00:50:39.575Z,37.38
2019-02-09T00:51:44.516Z,35.10
2019-02-09T00:52:49.303Z,35.17
2019-02-09T00:53:54.161Z,33.45
2019-02-09T00:54:59.036Z,33.35
2019-02-09T00:56:04.116Z,35.08
2019-02-09T00:57:09.044Z,34.20
2019-02-09T00:58:13.964Z,30.30
2019-02-09T00:59:18.888Z,35.23
2019-02-09T01:00:25.328Z,32.83
2019-02-09T01:01:30.248Z,35.05
2019-02-09T01:02:35.245Z,29.07
2019-02-09T01:03:40.013Z,30.43
2019-02-09T01:04:45.012Z,32.98
2019-02-09T01:05:50.044Z,32.95
2019-02-09T01:06:55.093Z,29.23
2019-02-09T01:08:00.225Z,31.60
2019-02-09T01:09:11.064Z,32.28
2019-02-09T01:10:16.340Z,31.10
2019-02-09T01:11:21.309Z,32.67
2019-02-09T01:12:26.077Z,29.70
2019-02-09T01:13:31.361Z,31.57
2019-02-09T01:14:36.254Z,30.72
2019-02-09T01:15:41.156Z,33.08
2019-02-09T01:16:45.865Z,35.28
2019-02-09T01:17:50.747Z,31.57
2019-02-09T01:18:55.696Z,33.92
2019-02-09T01:20:00.451Z,31.35
2019-02-09T01:21:05.484Z,29.72
2019-02-09T01:22:10.384Z,25.00
2019-02-09T01:23:15.153Z,28.40
2019-02-09T01:24:20.125Z,27.27
2019-02-09T01:25:25.167Z,31.45
2019-02-09T01:26:30.016Z,30.85
2019-02-09T01:27:34.900Z,34.63
2019-02-09T01:28:39.756Z,27.50
2019-02-09T01:29:44.598Z,33.05
2019-02-09T01:30:49.425Z,34.78
2019-02-09T01:31:54.313Z,33.00
2019-02-09T01:32:59.417Z,32.33
2019-02-09T01:34:04.210Z,28.07
2019-02-09T01:35:09.540Z,29.65
2019-02-09T01:36:14.417Z,28.45
2019-02-09T01:37:19.210Z,30.17
2019-02-09T01:38:23.943Z,32.33
2019-02-09T01:39:28.932Z,29.05
2019-02-09T01:40:33.927Z,32.80
2019-02-09T01:41:38.809Z,34.85
2019-02-09T01:42:43.652Z,32.35
2019-02-09T01:43:48.552Z,30.27
2019-02-09T01:44:53.440Z,27.82
2019-02-09T01:45:58.216Z,32.10
2019-02-09T01:47:03.101Z,34.10
2019-02-09T01:48:08.029Z,30.92
2019-02-09T01:49:13.087Z,32.73
2019-02-09T01:50:18.612Z,28.57
2019-02-09T01:51:23.564Z,30.68
2019-02-09T01:52:28.429Z,32.90
2019-02-09T01:53:33.224Z,32.50
2019-02-09T01:54:38.072Z,33.45
2019-02-09T01:55:42.952Z,34.20
2019-02-09T01:56:47.838Z,33.53
2019-02-09T01:57:52.729Z,30.23
2019-02-09T01:58:57.564Z,30.52
2019-02-09T02:00:10.240Z,31.02
2019-02-09T02:01:09.220Z,32.40
2019-02-09T02:02:13.991Z,29.98
2019-02-09T02:03:18.743Z,34.25
2019-02-09T02:04:23.677Z,31.65
2019-02-09T02:05:28.925Z,30.27
2019-02-09T02:06:33.703Z,36.00
2019-02-09T02:07:38.512Z,31.27
2019-02-09T02:08:43.401Z,30.75
2019-02-09T02:09:48.340Z,33.38
2019-02-09T02:10:53.301Z,33.18
2019-02-09T02:11:58.248Z,32.55
2019-02-09T02:13:03.633Z,32.45
2019-02-09T02:14:08.760Z,31.57
2019-02-09T02:15:16.553Z,30.35
2019-02-09T02:16:21.314Z,31.90
2019-02-09T02:17:26.182Z,36.23
2019-02-09T02:18:31.260Z,34.55
2019-02-09T02:19:36.145Z,31.97
2019-02-09T02:20:41.049Z,33.05
2019-02-09T02:21:45.988Z,32.42
2019-02-09T02:22:51.065Z,36.88
2019-02-09T02:23:55.917Z,33.20
2019-02-09T02:25:00.744Z,34.10
2019-02-09T02:26:05.735Z,36.38
2019-02-09T02:27:10.623Z,34.00
2019-02-09T02:28:15.418Z,34.55
2019-02-09T02:29:20.260Z,33.80
2019-02-09T02:30:27.369Z,34.67
2019-02-09T02:31:32.258Z,31.73
2019-02-09T02:32:37.113Z,34.38
2019-02-09T02:33:41.976Z,35.65
2019-02-09T02:34:46.960Z,36.48
2019-02-09T02:35:51.824Z,32.55
2019-02-09T02:36:56.583Z,35.45
2019-02-09T02:38:01.465Z,33.15
2019-02-09T02:39:10.401Z,32.25
2019-02-09T02:40:16.304Z,36.05
2019-02-09T02:41:21.216Z,32.13
2019-02-09T02:42:26.076Z,34.15
2019-02-09T02:43:30.898Z,33.15
2019-02-09T02:44:35.812Z,34.85
2019-02-09T02:45:40.761Z,35.65
2019-02-09T02:46:45.594Z,36.95
2019-02-09T02:47:50.488Z,33.42
2019-02-09T02:48:55.389Z,34.25
2019-02-09T02:50:00.304Z,34.50
2019-02-09T02:51:05.596Z,37.73
2019-02-09T02:52:10.352Z,33.33
2019-02-09T02:53:16.522Z,33.15
2019-02-09T02:54:21.524Z,35.35
2019-02-09T02:55:27.543Z,34.33
2019-02-09T02:56:32.408Z,36.75
2019-02-09T02:57:37.265Z,33.55
2019-02-09T02:58:42.009Z,34.00
2019-02-09T02:59:46.884Z,33.30
2019-02-09T03:00:51.750Z,34.73
2019-02-09T03:01:56.633Z,37.08
2019-02-09T03:03:01.640Z,33.08
2019-02-09T03:04:06.709Z,32.95
2019-02-09T03:05:13.873Z,33.10
2019-02-09T03:06:18.744Z,34.45
2019-02-09T03:07:23.524Z,37.17
2019-02-09T03:08:28.429Z,33.08
2019-02-09T03:09:33.272Z,37.78
2019-02-09T03:10:38.032Z,35.88
2019-02-09T03:11:42.837Z,35.13
2019-02-09T03:12:47.958Z,37.70
2019-02-09T03:13:52.904Z,34.83
2019-02-09T03:14:57.713Z,34.25
2019-02-09T03:16:02.720Z,33.10
2019-02-09T03:17:07.566Z,38.55
2019-02-09T03:18:12.477Z,33.18
2019-02-09T03:19:19.164Z,36.20
2019-02-09T03:20:24.094Z,28.52
2019-02-09T03:21:28.908Z,38.23
2019-02-09T03:22:33.725Z,31.55
2019-02-09T03:23:38.508Z,33.88
2019-02-09T03:24:43.388Z,33.67
2019-02-09T03:25:48.330Z,36.05
2019-02-09T03:26:53.066Z,33.42
2019-02-09T03:27:57.941Z,47.05
2019-02-09T03:29:02.848Z,35.10
2019-02-09T03:30:08.993Z,37.50
2019-02-09T03:31:13.743Z,33.95
2019-02-09T03:32:18.709Z,34.80
2019-02-09T03:33:23.557Z,36.98
2019-02-09T03:34:28.336Z,35.98
2019-02-09T03:35:33.132Z,33.20
2019-02-09T03:36:38.020Z,33.40
2019-02-09T03:37:43.037Z,33.18
2019-02-09T03:38:51.107Z,34.03
2019-02-09T03:39:56.024Z,32.60
2019-02-09T03:41:00.933Z,30.40
2019-02-09T03:42:05.803Z,37.00
2019-02-09T03:43:10.743Z,31.48
2019-02-09T03:44:15.641Z,35.35
2019-02-09T03:45:39.492Z,38.23
2019-02-09T03:46:44.381Z,34.40
2019-02-09T03:47:50.156Z,32.20
2019-02-09T03:48:55.005Z,30.82
2019-02-09T03:49:59.942Z,33.28
2019-02-09T03:51:04.989Z,32.33
2019-02-09T03:52:09.832Z,35.13
2019-02-09T03:53:14.905Z,34.23
2019-02-09T03:54:19.779Z,35.23
2019-02-09T03:55:25.009Z,34.08
2019-02-09T03:56:29.873Z,29.98
2019-02-09T03:57:34.721Z,31.97
2019-02-09T03:58:39.529Z,35.15
2019-02-09T03:59:44.471Z,31.37
2019-02-09T04:00:55.153Z,29.42
2019-02-09T04:01:56.140Z,36.73
2019-02-09T04:03:01.809Z,30.15
2019-02-09T04:04:06.872Z,36.42
2019-02-09T04:05:12.068Z,32.15
2019-02-09T04:06:16.928Z,29.10
2019-02-09T04:07:21.800Z,29.70
2019-02-09T04:08:26.710Z,34.75
2019-02-09T04:09:31.516Z,27.42
2019-02-09T04:10:36.583Z,34.48
2019-02-09T04:11:41.596Z,33.40
2019-02-09T04:12:46.519Z,33.85
2019-02-09T04:13:51.321Z,33.50
2019-02-09T04:14:57.182Z,31.02
2019-02-09T04:16:02.179Z,32.70
2019-02-09T04:17:07.118Z,33.23
2019-02-09T04:18:12.008Z,33.60
2019-02-09T04:19:16.894Z,33.60
2019-02-09T04:20:22.631Z,29.92
2019-02-09T04:21:27.393Z,31.42
2019-02-09T04:22:32.258Z,32.45
2019-02-09T04:23:37.144Z,31.12
2019-02-09T04:24:42.044Z,31.57
2019-02-09T04:25:47.134Z,30.95
2019-02-09T04:26:51.893Z,30.88
2019-02-09T04:27:56.780Z,35.03
2019-02-09T04:29:01.564Z,30.25
2019-02-09T04:30:10.512Z,31.93
2019-02-09T04:31:15.741Z,29.15
2019-02-09T04:32:20.607Z,28.02
2019-02-09T04:33:25.450Z,31.77
2019-02-09T04:34:30.313Z,31.60
2019-02-09T04:35:35.302Z,31.93
2019-02-09T04:36:40.028Z,30.43
2019-02-09T04:37:45.043Z,34.38
2019-02-09T04:38:53.008Z,29.98
2019-02-09T04:39:57.824Z,30.48
2019-02-09T04:41:02.737Z,31.23
2019-02-09T04:42:07.916Z,29.07
2019-02-09T04:43:12.717Z,28.02
2019-02-09T04:44:17.495Z,31.60
2019-02-09T04:45:22.483Z,29.02
2019-02-09T04:46:27.402Z,30.05
2019-02-09T04:47:32.273Z,27.62
2019-02-09T04:48:37.028Z,30.70
2019-02-09T04:49:41.888Z,31.75
2019-02-09T04:50:46.793Z,31.93
2019-02-09T04:51:51.629Z,29.72
2019-02-09T04:52:56.504Z,30.45
2019-02-09T04:54:01.369Z,27.80
2019-02-09T04:55:08.927Z,32.15
2019-02-09T04:56:13.756Z,26.42
2019-02-09T04:57:18.605Z,29.98
2019-02-09T04:58:23.488Z,28.47
2019-02-09T04:59:28.402Z,26.27
2019-02-09T05:00:33.470Z,27.37
2019-02-09T05:01:38.401Z,31.52
2019-02-09T05:02:43.386Z,28.30
2019-02-09T05:03:50.981Z,31.02
2019-02-09T05:04:55.825Z,25.27
2019-02-09T05:06:00.894Z,26.15
2019-02-09T05:07:05.761Z,26.33
2019-02-09T05:08:10.559Z,25.60
2019-02-09T05:09:15.504Z,24.60
2019-02-09T05:10:20.938Z,26.00
2019-02-09T05:11:25.767Z,27.75
2019-02-09T05:12:30.652Z,28.38
2019-02-09T05:13:35.431Z,27.42
2019-02-09T05:14:40.372Z,23.60
2019-02-09T05:15:45.212Z,23.32
2019-02-09T05:16:50.024Z,27.65
2019-02-09T05:17:55.036Z,27.30
2019-02-09T05:18:59.933Z,26.70
2019-02-09T05:20:05.516Z,28.40
2019-02-09T05:21:10.547Z,26.52
2019-02-09T05:22:15.389Z,24.55
2019-02-09T05:23:20.276Z,31.33
2019-02-09T05:24:25.065Z,30.15
2019-02-09T05:25:30.068Z,24.23
2019-02-09T05:26:34.955Z,24.60
2019-02-09T05:27:39.900Z,23.80
2019-02-09T05:28:44.725Z,28.60
2019-02-09T05:29:49.851Z,23.95
2019-02-09T05:30:54.739Z,23.85
2019-02-09T05:31:59.670Z,24.00
2019-02-09T05:33:04.607Z,26.97
2019-02-09T05:34:12.356Z,23.60
2019-02-09T05:35:17.437Z,27.17
2019-02-09T05:36:22.384Z,23.87
2019-02-09T05:37:27.351Z,24.75
2019-02-09T05:38:32.135Z,24.65
2019-02-09T05:39:36.970Z,25.90
2019-02-09T05:40:41.761Z,24.20
2019-02-09T05:41:46.702Z,24.92
2019-02-09T05:42:51.557Z,26.73
2019-02-09T05:43:56.325Z,25.95
2019-02-09T05:45:01.071Z,26.73
2019-02-09T05:46:06.248Z,22.60
2019-02-09T05:47:11.184Z,25.23
2019-02-09T05:48:16.070Z,27.73
2019-02-09T05:49:20.974Z,25.77
2019-02-09T05:50:26.239Z,24.10
2019-02-09T05:51:31.349Z,28.45
2019-02-09T05:52:36.246Z,25.10
2019-02-09T05:53:41.010Z,28.17
2019-02-09T05:54:45.872Z,26.40
2019-02-09T05:55:50.944Z,27.37
2019-02-09T05:56:55.865Z,25.00
2019-02-09T05:58:00.703Z,25.77
2019-02-09T05:59:07.410Z,23.42
2019-02-09T06:00:16.471Z,25.20
2019-02-09T06:01:21.354Z,26.02
2019-02-09T06:02:26.299Z,26.40
2019-02-09T06:03:31.191Z,27.15
2019-02-09T06:04:35.997Z,25.37
2019-02-09T06:05:40.993Z,23.27
2019-02-09T06:06:45.840Z,26.20
2019-02-09T06:07:50.883Z,26.02
2019-02-09T06:08:55.716Z,26.33
2019-02-09T06:10:00.569Z,25.43
2019-02-09T06:11:05.396Z,25.35
2019-02-09T06:12:13.217Z,25.65
2019-02-09T06:13:18.040Z,26.75
2019-02-09T06:14:22.839Z,23.95
2019-02-09T06:15:27.825Z,27.50
2019-02-09T06:16:32.713Z,24.65
2019-02-09T06:17:37.718Z,28.23
2019-02-09T06:18:42.525Z,26.25
2019-02-09T06:19:47.328Z,24.50
2019-02-09T06:20:52.352Z,27.15
2019-02-09T06:21:57.252Z,24.80
2019-02-09T06:23:02.359Z,21.97
2019-02-09T06:24:07.420Z,24.40
2019-02-09T06:25:12.577Z,24.07
2019-02-09T06:26:17.512Z,22.95
2019-02-09T06:27:22.493Z,24.60
2019-02-09T06:28:27.420Z,21.70
2019-02-09T06:29:32.813Z,19.32
2019-02-09T06:30:37.827Z,23.52
2019-02-09T06:31:42.729Z,24.80
2019-02-09T06:32:47.507Z,23.42
2019-02-09T06:33:52.420Z,24.72
2019-02-09T06:34:57.319Z,24.77
2019-02-09T06:36:02.112Z,24.52
2019-02-09T06:37:06.956Z,22.73
2019-02-09T06:38:12.197Z,22.30
2019-02-09T06:39:17.080Z,19.67
2019-02-09T06:40:22.254Z,20.00
2019-02-09T06:41:27.294Z,19.82
2019-02-09T06:42:32.246Z,21.25
2019-02-09T06:43:37.085Z,21.40
2019-02-09T06:44:42.005Z,18.07
2019-02-09T06:45:47.037Z,23.92
2019-02-09T06:46:51.921Z,21.85
2019-02-09T06:48:26.219Z,20.32
2019-02-09T06:49:31.164Z,22.52
2019-02-09T06:50:36.134Z,22.00
2019-02-09T06:51:41.098Z,22.87
2019-02-09T06:52:46.135Z,25.20
2019-02-09T06:53:51.182Z,26.02
2019-02-09T06:54:56.044Z,22.60
2019-02-09T06:56:00.946Z,24.25
2019-02-09T06:57:06.141Z,23.42
2019-02-09T06:58:11.131Z,24.63
2019-02-09T06:59:16.025Z,27.30
2019-02-09T07:00:21.476Z,29.48
2019-02-09T07:01:26.776Z,24.57
2019-02-09T07:02:32.026Z,27.17
2019-02-09T07:03:37.206Z,24.35
2019-02-09T07:04:42.153Z,26.10
2019-02-09T07:05:47.257Z,26.87
2019-02-09T07:06:52.554Z,24.87
2019-02-09T07:07:58.460Z,23.98
2019-02-09T07:09:04.323Z,23.47
2019-02-09T07:10:12.060Z,23.77
2019-02-09T07:11:17.121Z,24.72
2019-02-09T07:12:22.144Z,27.05
2019-02-09T07:13:27.165Z,25.10
2019-02-09T07:14:32.228Z,23.77
2019-02-09T07:15:38.245Z,27.05
2019-02-09T07:16:43.381Z,25.40
2019-02-09T07:17:48.517Z,27.17
2019-02-09T07:18:53.460Z,26.25
2019-02-09T07:19:58.364Z,24.85
2019-02-09T07:21:03.307Z,28.77
2019-02-09T07:22:08.232Z,25.95
2019-02-09T07:23:13.256Z,27.70
2019-02-09T07:24:18.454Z,26.33
2019-02-09T07:25:23.710Z,28.07
2019-02-09T07:26:28.762Z,26.68
2019-02-09T07:27:33.641Z,26.60
2019-02-09T07:28:38.549Z,28.52
2019-02-09T07:29:43.532Z,27.42
2019-02-09T07:30:48.588Z,30.20
2019-02-09T07:31:56.570Z,28.92
2019-02-09T07:33:01.457Z,29.50
2019-02-09T07:34:06.697Z,25.50
2019-02-09T07:35:13.077Z,26.77
2019-02-09T07:36:18.055Z,29.12
2019-02-09T07:37:23.177Z,27.55
2019-02-09T07:38:28.424Z,28.73
2019-02-09T07:39:33.252Z,29.00
2019-02-09T07:40:38.209Z,29.32
2019-02-09T07:41:43.288Z,30.43
2019-02-09T07:42:48.401Z,26.02
2019-02-09T07:43:53.404Z,29.67
2019-02-09T07:44:58.442Z,30.08
2019-02-09T07:46:03.727Z,32.00
2019-02-09T07:47:08.924Z,30.90
2019-02-09T07:48:13.964Z,32.42
2019-02-09T07:49:18.771Z,30.92
2019-02-09T07:50:24.950Z,34.15
2019-02-09T07:51:29.936Z,31.40
2019-02-09T07:52:34.816Z,33.83
2019-02-09T07:53:39.737Z,30.72
2019-02-09T07:54:44.736Z,30.37
2019-02-09T07:55:49.580Z,31.17
2019-02-09T07:56:54.703Z,32.67
2019-02-09T07:57:59.652Z,29.85
2019-02-09T07:59:05.061Z,28.77
2019-02-09T08:00:31.521Z,27.60
2019-02-09T08:01:36.558Z,31.10
2019-02-09T08:02:41.592Z,30.60
2019-02-09T08:03:46.408Z,31.33
2019-02-09T08:04:51.372Z,33.18
2019-02-09T08:05:56.303Z,27.95
2019-02-09T08:07:01.418Z,35.43
2019-02-09T08:08:06.783Z,27.70
2019-02-09T08:09:13.661Z,30.82
2019-02-09T08:10:20.828Z,31.30
2019-02-09T08:11:26.059Z,34.88
2019-02-09T08:12:31.005Z,32.40
2019-02-09T08:13:36.093Z,32.20
2019-02-09T08:14:41.187Z,36.05
2019-02-09T08:15:46.317Z,30.50
2019-02-09T08:16:51.187Z,36.83
2019-02-09T08:17:55.984Z,32.35
2019-02-09T08:19:01.039Z,39.08
2019-02-09T08:20:07.066Z,32.78
2019-02-09T08:21:12.228Z,32.23
2019-02-09T08:22:17.014Z,33.08
2019-02-09T08:23:22.063Z,36.23
2019-02-09T08:24:26.993Z,34.33
2019-02-09T08:25:34.160Z,35.10
2019-02-09T08:26:39.173Z,32.78
2019-02-09T08:27:44.385Z,34.05
2019-02-09T08:28:49.445Z,34.43
2019-02-09T08:29:54.612Z,34.27
2019-02-09T08:30:59.578Z,34.33
2019-02-09T08:32:12.260Z,32.30
2019-02-09T08:33:12.240Z,37.78
2019-02-09T08:34:20.248Z,30.40
2019-02-09T08:35:25.560Z,31.62
2019-02-09T08:36:30.438Z,30.27
2019-02-09T08:37:35.265Z,32.90
2019-02-09T08:38:40.685Z,33.63
2019-02-09T08:39:46.657Z,32.25
2019-02-09T08:40:51.792Z,32.17
2019-02-09T08:41:56.695Z,36.35
2019-02-09T08:43:01.652Z,33.15
2019-02-09T08:44:06.896Z,32.42
2019-02-09T08:45:16.521Z,31.97
2019-02-09T08:46:21.604Z,34.92
2019-02-09T08:47:26.538Z,32.58
2019-02-09T08:48:31.596Z,34.00
2019-02-09T08:49:36.812Z,36.25
2019-02-09T08:50:45.135Z,29.87
2019-02-09T08:51:50.045Z,32.08
2019-02-09T08:52:55.054Z,31.35
2019-02-09T08:54:00.207Z,33.90
2019-02-09T08:55:06.083Z,34.05
2019-02-09T08:56:11.150Z,28.75
2019-02-09T08:57:16.176Z,35.40
2019-02-09T08:58:21.120Z,32.48
2019-02-09T08:59:26.259Z,33.20
2019-02-09T09:00:32.453Z,33.38
2019-02-09T09:01:37.284Z,35.03
2019-02-09T09:02:42.375Z,34.58
2019-02-09T09:03:47.659Z,31.60
2019-02-09T09:04:52.736Z,32.03
2019-02-09T09:05:58.193Z,34.50
2019-02-09T09:07:03.321Z,31.62
2019-02-09T09:08:08.441Z,31.75
2019-02-09T09:09:13.948Z,31.68
2019-02-09T09:10:20.285Z,35.33
2019-02-09T09:11:25.262Z,30.65
2019-02-09T09:12:30.370Z,31.68
2019-02-09T09:13:35.192Z,32.25
2019-02-09T09:14:39.965Z,34.88
2019-02-09T09:15:56.080Z,34.03
2019-02-09T09:17:01.108Z,30.43
2019-02-09T09:18:06.529Z,32.88
2019-02-09T09:19:11.433Z,35.08
2019-02-09T09:20:25.227Z,31.05
2019-02-09T09:21:30.228Z,31.45
2019-02-09T09:22:35.247Z,29.12
2019-02-09T09:23:40.161Z,29.23
2019-02-09T09:24:45.113Z,32.30
2019-02-09T09:25:54.829Z,34.43
2019-02-09T09:26:59.829Z,28.83
2019-02-09T09:28:04.828Z,34.23
2019-02-09T09:29:09.877Z,29.67
2019-02-09T09:30:17.650Z,32.63
2019-02-09T09:31:22.798Z,29.23
2019-02-09T09:32:28.847Z,30.23
2019-02-09T09:33:33.905Z,28.98
2019-02-09T09:34:38.881Z,31.25
2019-02-09T09:35:43.993Z,27.82
2019-02-09T09:36:48.849Z,32.67
2019-02-09T09:37:53.947Z,32.55
2019-02-09T09:38:58.889Z,32.53
2019-02-09T09:40:04.184Z,30.72
2019-02-09T09:41:09.235Z,30.32
2019-02-09T09:42:14.341Z,32.80
2019-02-09T09:43:19.613Z,33.40
2019-02-09T09:44:24.468Z,31.33
2019-02-09T09:45:31.753Z,30.05
2019-02-09T09:46:36.697Z,30.12
2019-02-09T09:47:41.536Z,33.45
2019-02-09T09:48:46.608Z,34.53
2019-02-09T09:49:51.598Z,29.20
2019-02-09T09:50:56.570Z,33.50
2019-02-09T09:52:01.431Z,34.35
2019-02-09T09:53:06.809Z,35.90
2019-02-09T09:54:11.729Z,34.00
2019-02-09T09:55:16.972Z,29.55
2019-02-09T09:56:21.879Z,32.35
2019-02-09T09:57:26.713Z,32.42
2019-02-09T09:58:31.932Z,28.32
2019-02-09T09:59:36.945Z,28.23
2019-02-09T10:00:42.040Z,32.60
2019-02-09T10:01:47.123Z,33.45
2019-02-09T10:02:52.295Z,31.50
2019-02-09T10:03:57.420Z,34.05
2019-02-09T10:05:04.300Z,29.75
2019-02-09T10:06:09.191Z,32.95
2019-02-09T10:07:14.121Z,31.82
2019-02-09T10:08:19.062Z,30.17
2019-02-09T10:09:23.990Z,30.57
2019-02-09T10:10:29.152Z,33.78
2019-02-09T10:11:34.105Z,32.98
2019-02-09T10:12:39.113Z,34.18
2019-02-09T10:13:44.303Z,33.88
2019-02-09T10:14:49.622Z,32.53
2019-02-09T10:15:54.688Z,32.30
2019-02-09T10:16:59.784Z,32.03
2019-02-09T10:18:10.859Z,29.10
2019-02-09T10:19:18.051Z,29.30
2019-02-09T10:20:24.473Z,33.33
2019-02-09T10:21:29.541Z,30.95
2019-02-09T10:22:34.499Z,33.25
2019-02-09T10:23:39.424Z,30.77
2019-02-09T10:24:44.556Z,32.17
2019-02-09T10:25:49.640Z,31.97
2019-02-09T10:26:54.825Z,33.15
2019-02-09T10:27:59.785Z,29.32
2019-02-09T10:29:04.824Z,34.58
2019-02-09T10:30:13.380Z,31.90
2019-02-09T10:31:18.247Z,27.45
2019-02-09T10:32:23.093Z,33.23
2019-02-09T10:33:28.029Z,35.90
2019-02-09T10:34:33.114Z,33.60
2019-02-09T10:35:38.221Z,31.37
2019-02-09T10:36:43.167Z,29.85
2019-02-09T10:37:48.246Z,33.30
2019-02-09T10:38:53.141Z,32.13
2019-02-09T10:39:58.145Z,30.40
2019-02-09T10:41:03.092Z,28.98
2019-02-09T10:42:08.376Z,31.85
2019-02-09T10:43:13.354Z,27.58
2019-02-09T10:44:18.290Z,33.00
2019-02-09T10:45:24.846Z,31.77
2019-02-09T10:46:30.204Z,33.42
2019-02-09T10:47:35.605Z,32.28
2019-02-09T10:48:40.508Z,31.62
2019-02-09T10:49:45.333Z,36.93
2019-02-09T10:50:50.307Z,30.77
2019-02-09T10:51:55.642Z,32.38
2019-02-09T10:53:00.933Z,28.45
2019-02-09T10:54:06.452Z,30.40
2019-02-09T10:55:11.804Z,30.82
2019-02-09T10:56:16.815Z,33.25
2019-02-09T10:57:21.924Z,34.85
2019-02-09T10:58:27.055Z,33.10
2019-02-09T10:59:31.884Z,33.78
2019-02-09T11:00:48.476Z,31.00
2019-02-09T11:01:53.506Z,32.83
2019-02-09T11:02:58.806Z,36.65
2019-02-09T11:04:03.968Z,31.35
2019-02-09T11:05:10.292Z,30.57
2019-02-09T11:06:15.242Z,30.40
2019-02-09T11:07:20.300Z,34.40
2019-02-09T11:08:25.357Z,28.32
2019-02-09T11:09:30.449Z,29.17
2019-02-09T11:10:35.742Z,31.93
2019-02-09T11:11:40.935Z,26.02
2019-02-09T11:12:45.908Z,30.10
2019-02-09T11:13:51.078Z,30.75
2019-02-09T11:14:56.314Z,27.35
2019-02-09T11:16:01.669Z,27.40
2019-02-09T11:17:06.865Z,30.08
2019-02-09T11:18:12.137Z,27.42
2019-02-09T11:19:17.204Z,27.13
2019-02-09T11:20:22.403Z,31.12
2019-02-09T11:21:27.469Z,29.10
2019-02-09T11:22:32.611Z,33.85
2019-02-09T11:23:37.807Z,32.75
2019-02-09T11:24:42.885Z,27.45
2019-02-09T11:25:47.965Z,28.42
2019-02-09T11:26:53.239Z,28.62
2019-02-09T11:27:58.358Z,29.55
2019-02-09T11:29:03.335Z,28.95
2019-02-09T11:30:11.640Z,24.87
2019-02-09T11:31:16.934Z,26.02
2019-02-09T11:32:21.928Z,26.20
2019-02-09T11:33:26.796Z,24.85
2019-02-09T11:34:31.677Z,27.07
2019-02-09T11:35:36.546Z,25.10
2019-02-09T11:36:41.730Z,26.12
2019-02-09T11:37:46.937Z,26.95
2019-02-09T11:38:52.112Z,28.77
2019-02-09T11:39:57.066Z,29.35
2019-02-09T11:41:02.024Z,28.90
2019-02-09T11:42:07.270Z,30.27
2019-02-09T11:43:12.108Z,29.12
2019-02-09T11:44:16.956Z,29.85
2019-02-09T11:45:24.644Z,29.92
2019-02-09T11:46:29.535Z,27.50
2019-02-09T11:47:34.488Z,27.85
2019-02-09T11:48:39.578Z,26.75
2019-02-09T11:49:44.455Z,26.23
2019-02-09T11:50:49.452Z,27.02
2019-02-09T11:51:54.465Z,24.90
2019-02-09T11:52:59.500Z,22.87
2019-02-09T11:54:04.939Z,22.30
2019-02-09T11:55:10.503Z,24.50
2019-02-09T11:56:15.413Z,24.18
2019-02-09T11:57:20.351Z,29.82
2019-02-09T11:58:25.416Z,27.93
2019-02-09T11:59:30.300Z,22.52
2019-02-09T12:00:46.963Z,24.77
2019-02-09T12:01:52.080Z,24.67
2019-02-09T12:03:02.957Z,24.12
2019-02-09T12:04:03.841Z,24.92
2019-02-09T12:05:09.061Z,26.05
2019-02-09T12:06:14.313Z,21.65
2019-02-09T12:07:19.309Z,21.00
2019-02-09T12:08:24.196Z,25.85
2019-02-09T12:09:29.235Z,24.60
2019-02-09T12:10:34.266Z,25.32
2019-02-09T12:11:39.270Z,29.40
2019-02-09T12:12:44.350Z,27.15
2019-02-09T12:13:55.237Z,27.32
2019-02-09T12:14:55.847Z,27.20
2019-02-09T12:16:01.003Z,24.00
2019-02-09T12:17:06.500Z,29.50
2019-02-09T12:18:11.714Z,28.98
2019-02-09T12:19:16.585Z,25.52
2019-02-09T12:20:21.825Z,27.17
2019-02-09T12:21:26.712Z,25.85
2019-02-09T12:22:31.711Z,22.87
2019-02-09T12:23:36.764Z,25.05
2019-02-09T12:24:41.971Z,26.80
2019-02-09T12:25:47.141Z,26.15
2019-02-09T12:26:52.152Z,24.02
2019-02-09T12:27:57.045Z,21.45
2019-02-09T12:29:04.974Z,28.12
2019-02-09T12:30:12.001Z,23.70
2019-02-09T12:31:16.999Z,26.57
2019-02-09T12:32:21.792Z,24.65
2019-02-09T12:33:26.698Z,30.30
2019-02-09T12:34:31.697Z,26.40
2019-02-09T12:35:36.901Z,27.77
2019-02-09T12:36:42.192Z,25.62
2019-02-09T12:37:47.124Z,28.45
2019-02-09T12:38:52.114Z,24.85
2019-02-09T12:39:57.066Z,25.70
2019-02-09T12:41:01.936Z,25.17
2019-02-09T12:42:07.176Z,24.98
2019-02-09T12:43:12.157Z,26.45
2019-02-09T12:44:17.134Z,25.30
2019-02-09T12:45:22.974Z,25.35
2019-02-09T12:46:27.885Z,26.37
2019-02-09T12:47:33.170Z,29.75
2019-02-09T12:48:38.039Z,24.98
2019-02-09T12:49:42.832Z,23.92
2019-02-09T12:50:47.706Z,29.55
2019-02-09T12:51:52.623Z,26.37
2019-02-09T12:52:58.179Z,26.05
2019-02-09T12:54:03.052Z,33.18
2019-02-09T12:55:08.217Z,25.85
2019-02-09T12:56:13.186Z,28.65
2019-02-09T12:57:18.262Z,24.07
2019-02-09T12:58:23.297Z,26.52
2019-02-09T12:59:28.103Z,25.55
2019-02-09T13:00:36.819Z,29.48
2019-02-09T13:01:41.695Z,27.87
2019-02-09T13:02:46.686Z,27.10
2019-02-09T13:03:51.642Z,27.87
2019-02-09T13:04:56.553Z,26.55
2019-02-09T13:06:01.567Z,28.07
2019-02-09T13:07:06.403Z,26.00
2019-02-09T13:08:11.401Z,29.70
2019-02-09T13:09:16.328Z,29.55
2019-02-09T13:10:21.528Z,29.75
2019-02-09T13:11:26.592Z,29.02
2019-02-09T13:12:31.469Z,26.80
2019-02-09T13:13:36.454Z,27.42
2019-02-09T13:14:41.401Z,25.95
2019-02-09T13:15:46.444Z,26.60
2019-02-09T13:16:51.281Z,25.57
2019-02-09T13:17:56.178Z,31.30
2019-02-09T13:19:01.086Z,27.00
2019-02-09T13:20:09.327Z,27.48
2019-02-09T13:21:14.363Z,28.92
2019-02-09T13:22:19.333Z,29.65
2019-02-09T13:23:24.360Z,26.95
2019-02-09T13:24:29.201Z,24.87
2019-02-09T13:25:34.279Z,23.27
2019-02-09T13:26:39.153Z,24.98
2019-02-09T13:27:44.273Z,27.62
2019-02-09T13:28:49.112Z,28.50
2019-02-09T13:29:53.953Z,26.65
2019-02-09T13:31:00.043Z,24.87
2019-02-09T13:32:05.081Z,24.45
2019-02-09T13:33:24.297Z,26.95
2019-02-09T13:34:29.178Z,26.70
2019-02-09T13:35:34.025Z,25.88
2019-02-09T13:36:38.952Z,28.02
2019-02-09T13:37:43.737Z,23.12
2019-02-09T13:38:48.570Z,23.98
2019-02-09T13:39:53.334Z,27.35
2019-02-09T13:40:58.131Z,26.45
2019-02-09T13:42:02.967Z,23.20
2019-02-09T13:43:07.979Z,26.25
2019-02-09T13:44:12.794Z,25.95
2019-02-09T13:45:20.906Z,23.92
2019-02-09T13:46:25.728Z,25.57
2019-02-09T13:47:30.449Z,23.57
2019-02-09T13:48:35.181Z,23.90
2019-02-09T13:49:39.948Z,27.07
2019-02-09T13:50:44.765Z,28.83
2019-02-09T13:51:49.733Z,25.82
2019-02-09T13:52:54.603Z,23.98
2019-02-09T13:53:59.352Z,27.60
2019-02-09T13:55:04.391Z,27.98
2019-02-09T13:56:09.294Z,26.95
2019-02-09T13:57:14.112Z,31.50
2019-02-09T13:58:18.944Z,25.97
2019-02-09T13:59:24.067Z,24.75
2019-02-09T14:00:29.498Z,27.70
2019-02-09T14:01:34.451Z,28.85